Time;durP1;ratioP1;P1;durP2;ratioP2;P2;SDS_P1;SDS_P2;PMS_P1;PMS_P2;Temp;Humidity;BMP_temperature;BMP_pressure;BME280_temperature;BME280_humidity;BME280_pressure;Samples;Min_cycle;Max_cycle;Signal;HPM_P1;HPM_P2
2022/01/03 00:00:52;;;;;;;4.18;2.65;;;;;;;-6.82;67.33;98660.53;4860987;29;20044;-73
2022/01/03 00:03:18;;;;;;;6.07;2.67;;;;;;;-6.85;67.67;98647.63;4845892;29;20407;-71
2022/01/03 00:05:43;;;;;;;4.22;2.53;;;;;;;-6.88;67.75;98637.34;4862510;29;20068;-72
2022/01/03 00:08:08;;;;;;;5.50;2.78;;;;;;;-6.94;67.21;98640.88;4862497;29;20048;-72
2022/01/03 00:10:33;;;;;;;3.63;2.63;;;;;;;-6.98;67.95;98637.47;4860925;29;20461;-71
2022/01/03 00:12:59;;;;;;;9.77;3.33;;;;;;;-6.99;68.05;98638.34;4860647;29;20072;-71
2022/01/03 00:15:24;;;;;;;3.40;2.47;;;;;;;-7.07;68.29;98653.19;4845311;29;20052;-70
2022/01/03 00:17:49;;;;;;;4.25;2.40;;;;;;;-6.98;68.42;98642.66;4861392;29;20047;-73
2022/01/03 00:20:15;;;;;;;4.85;2.47;;;;;;;-6.99;67.96;98630.56;4862717;29;20045;-73
2022/01/03 00:22:53;;;;;;;6.82;2.83;;;;;;;-7.08;68.41;98615.19;4847296;29;20049;-79
2022/01/03 00:25:21;;;;;;;3.67;2.33;;;;;;;-7.05;68.10;98624.66;4832015;29;20104;-76
2022/01/03 00:27:57;;;;;;;5.88;3.08;;;;;;;-7.02;68.69;98619.44;4862281;29;20566;-72
2022/01/03 00:30:22;;;;;;;4.38;2.28;;;;;;;-7.01;67.97;98613.38;4862710;29;20080;-72
2022/01/03 00:32:49;;;;;;;3.88;2.38;;;;;;;-6.96;67.72;98620.16;4862979;29;20071;-76
2022/01/03 00:35:15;;;;;;;6.40;3.63;;;;;;;-7.03;68.06;98608.22;4861270;29;20591;-72
2022/01/03 00:37:43;;;;;;;7.60;3.10;;;;;;;-7.13;68.81;98606.69;4862418;29;20059;-73
2022/01/03 00:40:09;;;;;;;4.22;2.60;;;;;;;-7.05;68.68;98599.63;4846626;29;20117;-75
2022/01/03 00:42:34;;;;;;;5.97;3.92;;;;;;;-7.04;68.81;98579.75;4861900;29;20036;-76
2022/01/03 00:45:00;;;;;;;6.70;3.28;;;;;;;-7.12;68.85;98582.50;4846407;29;20078;-72
2022/01/03 00:47:27;;;;;;;6.80;3.65;;;;;;;-7.07;68.71;98572.88;4860768;29;20080;-74
2022/01/03 00:49:52;;;;;;;10.07;3.20;;;;;;;-7.10;68.57;98566.91;4861379;29;20056;-73
2022/01/03 00:52:18;;;;;;;5.72;3.85;;;;;;;-7.09;68.40;98563.44;4861573;29;20068;-75
2022/01/03 00:54:43;;;;;;;7.20;3.30;;;;;;;-7.05;68.92;98554.72;4862479;29;20055;-79
2022/01/03 00:57:19;;;;;;;5.07;3.40;;;;;;;-7.08;69.15;98553.03;4863516;29;20048;-78
2022/01/03 00:59:46;;;;;;;7.63;3.35;;;;;;;-7.00;69.00;98540.78;4861874;29;20060;-72
2022/01/03 01:02:14;;;;;;;5.68;2.97;;;;;;;-7.01;68.35;98546.88;4847378;29;20067;-80
2022/01/03 01:04:44;;;;;;;3.17;1.63;;;;;;;-6.83;68.11;98531.84;4847882;29;20102;-77
2022/01/03 01:07:09;;;;;;;6.75;2.78;;;;;;;-6.76;67.73;98541.19;4847037;29;20096;-73
2022/01/03 01:09:35;;;;;;;7.05;2.53;;;;;;;-6.86;67.40;98524.13;4863199;29;20048;-77
2022/01/03 01:12:00;;;;;;;6.68;3.60;;;;;;;-7.23;68.43;98527.44;4848441;29;20044;-76
2022/01/03 01:14:33;;;;;;;4.35;2.60;;;;;;;-7.36;69.22;98515.59;4847582;29;20515;-78
2022/01/03 01:16:58;;;;;;;3.33;2.47;;;;;;;-7.45;68.93;98526.94;4845820;29;20502;-72
2022/01/03 01:19:26;;;;;;;7.53;4.25;;;;;;;-7.41;68.97;98509.63;4861708;29;20503;-76
2022/01/03 01:21:53;;;;;;;4.82;2.83;;;;;;;-7.44;69.99;98520.91;4862388;29;20048;-73
2022/01/03 01:24:22;;;;;;;4.53;3.25;;;;;;;-7.39;70.13;98505.28;4846832;29;20049;-75
2022/01/03 01:29:32;;;;;;;4.45;3.00;;;;;;;-7.23;70.25;98503.28;4844208;29;20144;-71
2022/01/03 01:32:01;;;;;;;7.72;4.57;;;;;;;-7.17;70.24;98485.03;4844001;29;20040;-76
2022/01/03 01:34:28;;;;;;;5.13;3.40;;;;;;;-7.15;70.00;98484.13;4862229;29;20056;-78
2022/01/03 01:36:57;;;;;;;4.55;3.17;;;;;;;-7.06;69.90;98473.59;4863046;29;20853;-77
2022/01/03 01:39:25;;;;;;;5.00;2.83;;;;;;;-7.06;69.57;98476.19;4862065;29;20053;-78
2022/01/03 01:41:55;;;;;;;9.45;2.92;;;;;;;-7.14;69.72;98472.03;4845408;29;20127;-76
2022/01/03 01:44:22;;;;;;;5.53;3.05;;;;;;;-7.17;69.72;98461.72;4845988;29;20044;-78
2022/01/03 01:46:53;;;;;;;5.07;2.30;;;;;;;-7.14;69.70;98454.75;4846323;29;20096;-75
2022/01/03 01:49:21;;;;;;;5.47;2.72;;;;;;;-7.12;69.56;98455.59;4845549;29;20047;-74
2022/01/03 01:51:57;;;;;;;1.92;1.25;;;;;;;-6.89;69.27;98460.31;4845341;29;20073;-78
2022/01/03 01:54:32;;;;;;;3.78;2.17;;;;;;;-6.95;68.54;98460.41;4861263;29;20519;-79
2022/01/03 01:57:00;;;;;;;2.97;2.33;;;;;;;-7.03;69.15;98451.97;4845623;29;20080;-72
2022/01/03 01:59:52;;;;;;;1.80;1.70;;;;;;;-7.29;69.28;98441.25;4844749;29;20143;-78
2022/01/03 02:02:31;;;;;;;8.10;4.47;;;;;;;-7.28;68.41;98441.22;4851419;29;20063;-76
2022/01/03 02:05:17;;;;;;;5.00;3.35;;;;;;;-7.39;69.20;98433.69;4846052;29;20045;-73
2022/01/03 02:07:51;;;;;;;2.78;1.50;;;;;;;-7.36;68.52;98436.22;4847195;29;20088;-75
2022/01/03 02:10:16;;;;;;;5.55;2.97;;;;;;;-7.30;68.56;98427.44;4864835;29;20048;-76
2022/01/03 02:12:48;;;;;;;12.60;4.20;;;;;;;-7.45;69.44;98420.00;4834240;29;20044;-82
2022/01/03 02:15:18;;;;;;;7.88;4.20;;;;;;;-7.63;69.67;98417.75;4863833;29;20061;-79
2022/01/03 02:17:46;;;;;;;6.93;2.63;;;;;;;-7.59;70.44;98429.75;4847725;29;20139;-78
2022/01/03 02:20:14;;;;;;;5.35;2.50;;;;;;;-7.52;69.86;98416.66;4865561;29;20048;-79
2022/01/03 02:22:41;;;;;;;5.13;2.63;;;;;;;-7.56;69.52;98427.13;4849031;29;20108;-75
2022/01/03 02:25:13;;;;;;;6.97;3.45;;;;;;;-7.51;69.13;98414.94;4848278;29;20052;-73
2022/01/03 02:27:39;;;;;;;6.72;3.03;;;;;;;-7.46;69.38;98398.44;4864226;29;20505;-71
2022/01/03 02:30:09;;;;;;;10.75;3.22;;;;;;;-7.52;69.22;98392.53;4863812;29;20048;-79
2022/01/03 02:32:34;;;;;;;6.45;3.75;;;;;;;-7.64;69.43;98390.16;4848935;29;20045;-80
2022/01/03 02:34:59;;;;;;;8.10;4.13;;;;;;;-7.66;69.50;98395.38;4848498;29;20519;-73
2022/01/03 02:37:27;;;;;;;5.93;3.50;;;;;;;-7.68;70.26;98383.38;4847944;29;20187;-70
2022/01/03 02:39:53;;;;;;;5.10;3.08;;;;;;;-7.72;70.48;98379.97;4863249;29;20060;-73
2022/01/03 02:42:24;;;;;;;7.40;4.00;;;;;;;-7.81;71.24;98370.66;4847324;29;20119;-66
2022/01/03 02:45:09;;;;;;;2.20;1.30;;;;;;;-7.60;70.56;98368.53;4862534;29;20507;-68
2022/01/03 02:47:37;;;;;;;6.05;4.05;;;;;;;-7.71;69.80;98356.66;4846543;29;20133;-67
2022/01/03 02:50:09;;;;;;;12.07;4.63;;;;;;;-7.89;72.17;98364.75;4862187;29;20052;-67
2022/01/03 02:52:34;;;;;;;5.82;3.47;;;;;;;-7.85;71.80;98355.22;4862029;29;20522;-64
2022/01/03 02:54:59;;;;;;;6.18;3.15;;;;;;;-7.70;71.08;98352.34;4862144;29;20080;-67
2022/01/03 02:57:24;;;;;;;8.75;4.65;;;;;;;-7.75;71.48;98346.38;4862872;29;20108;-74
2022/01/03 02:59:55;;;;;;;7.60;4.18;;;;;;;-7.76;72.18;98355.88;4864745;29;20048;-75
2022/01/03 03:02:26;;;;;;;6.32;3.85;;;;;;;-7.77;71.90;98353.31;4847136;29;20040;-67
2022/01/03 03:05:00;;;;;;;4.20;2.42;;;;;;;-7.63;71.88;98353.06;4862132;29;20524;-67
2022/01/03 03:07:28;;;;;;;6.35;3.25;;;;;;;-7.61;72.05;98353.88;4862250;29;20048;-68
2022/01/03 03:09:54;;;;;;;6.05;3.80;;;;;;;-7.60;71.27;98356.44;4862087;29;20048;-68
2022/01/03 03:12:20;;;;;;;4.03;2.13;;;;;;;-7.54;71.31;98355.47;4861694;29;20067;-65
2022/01/03 03:14:45;;;;;;;6.68;3.20;;;;;;;-7.47;71.07;98354.47;4845964;29;20056;-65
2022/01/03 03:17:10;;;;;;;12.38;3.50;;;;;;;-7.62;71.58;98352.19;4863181;29;20096;-65
2022/01/03 03:19:55;;;;;;;6.70;3.20;;;;;;;-7.46;70.69;98351.00;4861447;29;20051;-65
2022/01/03 03:22:21;;;;;;;8.70;5.15;;;;;;;-7.66;70.39;98350.53;4861518;29;20047;-64
2022/01/03 03:24:46;;;;;;;6.03;3.03;;;;;;;-7.72;71.29;98336.84;4845843;29;20053;-69
2022/01/03 03:27:12;;;;;;;7.18;4.03;;;;;;;-7.66;70.68;98343.63;4861778;29;20103;-69
2022/01/03 03:29:49;;;;;;;7.28;4.47;;;;;;;-7.82;72.01;98335.31;4861464;29;20045;-69
2022/01/03 03:32:16;;;;;;;5.65;3.05;;;;;;;-7.76;71.12;98335.19;4830304;29;20092;-70
2022/01/03 03:34:42;;;;;;;8.75;4.47;;;;;;;-7.79;71.41;98334.41;4861576;29;20052;-70
2022/01/03 03:37:09;;;;;;;5.97;3.95;;;;;;;-7.80;72.46;98325.81;4860909;29;20155;-69
2022/01/03 03:39:36;;;;;;;4.13;2.92;;;;;;;-7.65;72.17;98327.22;4861416;29;20056;-75
2022/01/03 03:42:04;;;;;;;6.18;3.85;;;;;;;-7.60;71.77;98307.28;4861607;29;20055;-66
2022/01/03 03:44:29;;;;;;;4.68;2.90;;;;;;;-7.59;71.74;98303.81;4861785;29;20117;-69
2022/01/03 03:46:54;;;;;;;7.00;4.05;;;;;;;-7.78;72.61;98292.13;4845846;29;20048;-68
2022/01/03 03:49:18;;;;;;;6.90;3.60;;;;;;;-7.76;72.81;98308.47;4861273;29;20048;-69
2022/01/03 03:51:43;;;;;;;7.95;4.03;;;;;;;-7.75;72.54;98295.50;4845780;29;20092;-64
2022/01/03 03:54:08;;;;;;;4.28;2.67;;;;;;;-7.61;71.14;98278.84;4860904;29;20056;-64
2022/01/03 03:56:34;;;;;;;7.97;3.65;;;;;;;-7.65;71.46;98285.81;4862232;29;20044;-68
2022/01/03 03:58:59;;;;;;;6.88;3.83;;;;;;;-7.79;72.07;98290.44;4861596;29;20056;-66
2022/01/03 04:01:24;;;;;;;1.88;1.45;;;;;;;-7.73;72.28;98288.56;4861252;29;20079;-67
2022/01/03 04:03:52;;;;;;;7.97;4.40;;;;;;;-7.70;71.51;98278.16;4861033;29;20060;-69
2022/01/03 04:06:19;;;;;;;7.00;4.18;;;;;;;-7.79;73.27;98286.13;4845364;29;20385;-71
2022/01/03 04:08:47;;;;;;;7.57;4.43;;;;;;;-7.85;73.16;98286.22;4852489;29;20051;-71
2022/01/03 04:11:15;;;;;;;4.45;2.47;;;;;;;-7.70;73.08;98285.06;4871479;29;20104;-69
2022/01/03 04:13:41;;;;;;;6.47;4.00;;;;;;;-7.58;72.11;98279.66;4871901;29;20056;-71
2022/01/03 04:16:07;;;;;;;7.15;4.20;;;;;;;-7.68;71.86;98272.97;4871727;29;20040;-72
2022/01/03 04:18:32;;;;;;;9.32;3.33;;;;;;;-7.72;73.13;98279.06;4855542;29;20044;-67
2022/01/03 04:20:57;;;;;;;5.60;3.78;;;;;;;-7.76;73.07;98270.50;4855563;29;20040;-69
2022/01/03 04:23:22;;;;;;;6.97;3.78;;;;;;;-7.72;72.81;98264.41;4863669;29;20048;-67
2022/01/03 04:25:48;;;;;;;8.38;4.10;;;;;;;-7.90;73.05;98259.59;4889696;29;20044;-68
2022/01/03 04:28:12;;;;;;;4.80;3.22;;;;;;;-7.89;72.99;98256.13;4860440;29;20040;-68
2022/01/03 04:30:38;;;;;;;4.10;2.92;;;;;;;-7.73;72.14;98254.94;4858070;29;20039;-68
2022/01/03 04:33:03;;;;;;;8.93;3.83;;;;;;;-7.76;72.35;98242.06;4858297;29;20135;-67
2022/01/03 04:35:28;;;;;;;6.43;4.03;;;;;;;-7.81;72.29;98236.16;4858344;29;20415;-68
2022/01/03 11:29:43;;;;;;;11.25;6.07;;;;;;;-6.22;68.64;97742.22;4981622;23;20058;-75
2022/01/03 11:32:09;;;;;;;13.00;6.63;;;;;;;-6.28;69.11;97754.50;4869123;29;20048;-74
2022/01/03 11:34:35;;;;;;;12.23;6.57;;;;;;;-6.25;68.99;97744.03;4878470;29;20039;-77
2022/01/03 11:37:03;;;;;;;14.75;7.38;;;;;;;-6.22;69.32;97737.03;4882561;29;20048;-76
2022/01/03 11:39:32;;;;;;;18.52;8.07;;;;;;;-6.12;68.94;97738.41;4848362;29;20051;-74
2022/01/03 11:41:57;;;;;;;15.85;9.10;;;;;;;-6.16;68.44;97749.78;4881589;29;20530;-74
2022/01/03 11:44:22;;;;;;;15.88;9.02;;;;;;;-6.21;68.96;97738.72;4848640;29;20522;-74
2022/01/03 11:46:47;;;;;;;11.35;6.22;;;;;;;-6.05;68.44;97739.88;4848793;29;20052;-74
2022/01/03 11:49:13;;;;;;;15.23;7.82;;;;;;;-6.21;68.35;97743.91;4864329;29;20055;-75
2022/01/03 11:51:39;;;;;;;17.45;8.25;;;;;;;-6.23;67.69;97746.56;4881287;29;20059;-71
2022/01/03 11:54:07;;;;;;;13.45;7.50;;;;;;;-6.32;67.84;97739.09;4881303;29;20044;-72
2022/01/03 11:56:38;;;;;;;5.60;3.58;;;;;;;-6.34;68.29;97762.50;4864731;29;20044;-73
2022/01/03 12:04:34;;;;;;;14.93;6.50;;;;;;;-6.55;68.43;97745.06;4881199;29;20055;-71
2022/01/03 12:07:11;;;;;;;16.13;6.38;;;;;;;-6.40;67.68;97741.94;4863972;29;20080;-72
2022/01/03 12:09:39;;;;;;;8.90;5.13;;;;;;;-6.42;67.67;97738.56;4864241;29;20048;-73
2022/01/03 12:12:05;;;;;;;10.80;5.22;;;;;;;-6.53;67.96;97732.88;4880870;29;20411;-70
2022/01/03 12:14:44;;;;;;;10.70;4.25;;;;;;;-6.42;68.14;97729.94;4880795;29;20067;-73
2022/01/03 12:17:11;;;;;;;12.57;5.82;;;;;;;-6.40;68.39;97723.81;4863837;29;20083;-72
2022/01/03 12:19:38;;;;;;;14.75;5.40;;;;;;;-6.53;68.29;97721.66;4881023;29;20047;-74
2022/01/03 12:22:20;;;;;;;14.80;7.57;;;;;;;-6.53;68.46;97730.28;4863731;29;20044;-74
2022/01/03 12:24:46;;;;;;;12.95;7.45;;;;;;;-6.64;68.15;97722.88;4863410;29;20444;-74
2022/01/03 12:27:14;;;;;;;8.18;4.50;;;;;;;-6.56;68.63;97722.66;4851346;29;20074;-74
2022/01/03 12:29:54;;;;;;;13.55;6.90;;;;;;;-6.50;68.96;97722.44;4871255;29;20092;-75
2022/01/03 12:32:31;;;;;;;7.25;5.25;;;;;;;-6.43;68.59;97716.13;4870987;29;20056;-74
2022/01/03 12:35:12;;;;;;;8.55;4.88;;;;;;;-6.36;68.53;97724.56;4862772;29;20044;-75
2022/01/03 12:38:09;;;;;;;9.18;5.10;;;;;;;-6.38;68.36;97719.41;4861408;29;20083;-74
2022/01/03 12:40:42;;;;;;;7.80;4.85;;;;;;;-6.42;67.58;97717.81;4862299;29;20440;-74
2022/01/03 12:43:11;;;;;;;12.32;6.70;;;;;;;-6.55;67.98;97705.34;4860744;29;20068;-75
2022/01/03 12:45:39;;;;;;;12.45;6.80;;;;;;;-6.58;67.76;97708.88;4860247;29;20044;-74
2022/01/03 12:48:10;;;;;;;10.80;7.10;;;;;;;-6.76;68.98;97709.50;4861622;29;20495;-78
2022/01/03 12:50:52;;;;;;;9.07;5.78;;;;;;;-6.84;69.17;97708.91;4861835;29;20058;-71
2022/01/03 12:53:29;;;;;;;11.23;6.60;;;;;;;-6.85;69.54;97702.03;4862074;29;20411;-76
2022/01/03 12:56:04;;;;;;;7.45;3.38;;;;;;;-6.77;69.85;97708.66;4860824;29;20053;-77
2022/01/03 12:58:29;;;;;;;8.82;4.82;;;;;;;-6.69;69.21;97711.00;4861935;29;20844;-75
2022/01/03 13:00:56;;;;;;;9.00;5.20;;;;;;;-6.67;69.65;97704.88;4881105;29;20044;-76
2022/01/03 13:03:29;;;;;;;11.85;6.88;;;;;;;-6.75;69.13;97721.56;4863985;29;20040;-75
2022/01/03 13:06:14;;;;;;;14.90;7.72;;;;;;;-6.76;69.23;97725.03;4881255;29;20048;-75
2022/01/03 13:08:59;;;;;;;11.27;6.43;;;;;;;-6.82;69.56;97730.44;4881373;29;20126;-75
2022/01/03 13:11:29;;;;;;;13.07;6.43;;;;;;;-6.83;69.74;97718.38;4876009;29;20043;-75
2022/01/03 13:14:01;;;;;;;13.13;7.20;;;;;;;-6.82;70.30;97720.06;4869887;29;20104;-73
2022/01/03 13:16:40;;;;;;;17.42;5.68;;;;;;;-6.67;70.30;97704.88;4861351;29;20468;-77
2022/01/03 13:19:06;;;;;;;13.45;6.80;;;;;;;-6.66;69.64;97710.91;4861076;29;20533;-77
2022/01/03 13:21:35;;;;;;;14.20;8.02;;;;;;;-6.69;69.66;97711.00;4869165;29;20131;-76
2022/01/03 13:24:16;;;;;;;6.18;3.63;;;;;;;-6.54;69.41;97707.88;4861565;29;20079;-75
2022/01/03 13:27:16;;;;;;;14.38;6.72;;;;;;;-6.54;69.17;97705.28;4862243;29;20514;-75
2022/01/03 13:29:48;;;;;;;10.35;5.35;;;;;;;-6.80;68.84;97703.59;4889030;29;20059;-76
2022/01/03 13:32:16;;;;;;;16.38;8.90;;;;;;;-6.91;68.96;97704.84;4890360;29;20554;-76
2022/01/03 13:34:41;;;;;;;18.02;8.50;;;;;;;-6.91;69.31;97704.84;4864094;29;20051;-75
2022/01/03 13:37:09;;;;;;;15.93;7.20;;;;;;;-6.90;68.86;97698.78;4865918;29;20036;-76
2022/01/03 13:39:38;;;;;;;17.88;7.57;;;;;;;-6.93;69.36;97704.03;4880244;29;20511;-74
2022/01/03 13:42:11;;;;;;;11.27;5.53;;;;;;;-7.00;69.06;97706.00;4847492;29;20048;-74
2022/01/03 13:50:06;;;;;;;20.40;5.70;;;;;;;-7.06;70.06;97701.84;4896293;29;20050;-75
2022/01/03 13:52:34;;;;;;;17.02;9.60;;;;;;;-7.21;70.47;97702.31;4898992;29;20060;-74
2022/01/03 13:55:02;;;;;;;19.02;9.10;;;;;;;-7.29;70.97;97699.16;4857743;29;20127;-74
2022/01/03 13:57:29;;;;;;;13.70;7.93;;;;;;;-7.27;70.77;97705.13;4880856;29;20099;-73
2022/01/03 13:59:55;;;;;;;18.50;9.88;;;;;;;-7.22;70.70;97705.81;4865680;29;20094;-75
2022/01/03 14:02:21;;;;;;;5.10;3.10;;;;;;;-7.08;71.32;97701.03;4881531;29;20044;-71
2022/01/03 14:04:46;;;;;;;7.35;4.88;;;;;;;-7.00;70.79;97701.63;4869346;29;20131;-70
2022/01/03 14:07:12;;;;;;;14.30;8.90;;;;;;;-7.16;70.41;97716.00;4878642;29;20126;-71
2022/01/03 14:09:56;;;;;;;14.88;8.32;;;;;;;-7.21;70.41;97717.88;4894760;29;20068;-71
2022/01/03 14:12:31;;;;;;;18.20;9.52;;;;;;;-7.08;70.40;97708.81;4874229;29;20066;-72
2022/01/03 14:15:02;;;;;;;21.55;9.75;;;;;;;-7.39;70.58;97702.91;4880096;29;20131;-73
2022/01/03 14:17:28;;;;;;;17.15;9.80;;;;;;;-7.50;70.85;97705.00;4886484;29;20047;-72
2022/01/03 14:20:08;;;;;;;15.30;8.30;;;;;;;-7.42;70.81;97710.78;4892528;29;20039;-72
2022/01/03 14:22:38;;;;;;;24.70;8.90;;;;;;;-7.38;71.14;97702.88;4893700;29;20565;-72
2022/01/03 14:25:13;;;;;;;10.95;5.10;;;;;;;-7.36;71.61;97698.50;4891885;29;20044;-72
2022/01/03 14:27:41;;;;;;;15.27;6.95;;;;;;;-7.36;71.32;97702.84;4868338;29;20081;-71
2022/01/03 14:30:12;;;;;;;6.95;3.45;;;;;;;-7.28;71.86;97703.44;4892106;29;20050;-72
2022/01/03 14:32:39;;;;;;;14.75;7.55;;;;;;;-7.23;70.81;97701.56;4890561;29;20036;-73
2022/01/03 14:35:04;;;;;;;9.25;5.90;;;;;;;-7.14;70.57;97687.47;4875792;29;20043;-72
2022/01/03 14:37:30;;;;;;;23.92;10.43;;;;;;;-7.23;70.30;97687.75;4877732;29;20050;-72
2022/01/03 14:39:54;;;;;;;12.27;7.35;;;;;;;-7.30;71.09;97689.69;4899010;29;20043;-73
2022/01/03 14:42:25;;;;;;;20.73;10.23;;;;;;;-7.35;71.79;97694.19;4885275;29;20038;-72
2022/01/03 14:44:52;;;;;;;20.67;10.75;;;;;;;-7.31;70.97;97698.34;4885186;29;20127;-72
2022/01/03 14:47:17;;;;;;;18.13;6.32;;;;;;;-7.40;71.77;97696.91;4884656;29;20074;-72
2022/01/03 14:50:02;;;;;;;14.77;4.82;;;;;;;-7.30;71.68;97691.44;4869161;29;20069;-73
2022/01/03 14:52:34;;;;;;;22.52;11.30;;;;;;;-7.33;71.55;97689.78;4884844;29;20051;-74
2022/01/03 14:55:00;;;;;;;20.67;8.65;;;;;;;-7.36;72.41;97689.91;4902523;29;20044;-73
2022/01/03 14:57:29;;;;;;;17.02;7.85;;;;;;;-7.23;72.59;97692.94;4902597;29;20047;-73
2022/01/03 14:59:56;;;;;;;24.40;10.65;;;;;;;-7.35;71.79;97682.09;4904184;29;20209;-73
2022/01/03 15:02:21;;;;;;;22.98;10.73;;;;;;;-7.36;72.21;97671.78;4904473;29;20042;-72
2022/01/03 15:04:46;;;;;;;20.33;11.48;;;;;;;-7.35;72.89;97678.66;4902409;29;20052;-73
2022/01/03 15:07:13;;;;;;;17.10;9.43;;;;;;;-7.35;72.35;97673.47;4903957;29;20470;-70
2022/01/03 15:09:39;;;;;;;12.27;7.32;;;;;;;-7.25;72.41;97674.88;4898631;29;20052;-71
2022/01/03 15:12:04;;;;;;;25.88;11.50;;;;;;;-7.28;72.25;97677.53;4895039;29;20036;-70
2022/01/03 15:14:29;;;;;;;21.55;10.38;;;;;;;-7.22;72.27;97676.50;4888595;29;20051;-71
2022/01/03 15:16:54;;;;;;;25.70;11.82;;;;;;;-7.11;72.89;97675.25;4873469;29;20096;-70
2022/01/03 15:19:18;;;;;;;29.27;15.10;;;;;;;-7.15;72.84;97673.66;4890276;29;20131;-70
2022/01/03 15:21:44;;;;;;;26.15;12.60;;;;;;;-7.23;72.35;97687.75;4892222;29;20090;-73
2022/01/03 15:24:08;;;;;;;25.95;12.70;;;;;;;-7.20;72.94;97692.81;4874041;29;20044;-73
2022/01/03 15:26:33;;;;;;;14.75;7.32;;;;;;;-7.11;73.14;97687.38;4891388;29;20086;-73
2022/01/03 15:28:58;;;;;;;21.02;9.75;;;;;;;-6.91;72.34;97691.88;4889558;29;20067;-73
2022/01/03 15:31:23;;;;;;;20.02;9.32;;;;;;;-6.76;71.48;97689.63;4865565;29;20044;-71
2022/01/03 15:33:48;;;;;;;34.92;15.50;;;;;;;-6.91;71.32;97681.53;4882450;29;20054;-70
2022/01/03 15:36:13;;;;;;;26.10;14.48;;;;;;;-7.03;71.19;97681.03;4882482;29;20104;-70
2022/01/03 15:38:37;;;;;;;24.92;12.52;;;;;;;-7.09;71.59;97678.63;4882909;29;20131;-71
2022/01/03 15:41:03;;;;;;;27.98;12.90;;;;;;;-7.12;71.36;97686.53;4882809;29;20076;-71
2022/01/03 15:43:30;;;;;;;25.27;9.73;;;;;;;-7.07;71.34;97679.44;4865577;29;20044;-70
2022/01/03 15:45:58;;;;;;;24.83;11.50;;;;;;;-7.22;71.48;97679.91;4866355;29;20059;-70
2022/01/03 15:48:22;;;;;;;29.02;12.15;;;;;;;-7.28;71.59;97663.75;4866058;29;20043;-71
2022/01/03 15:50:49;;;;;;;20.48;10.82;;;;;;;-7.10;71.83;97663.16;4869087;29;20099;-70
2022/01/03 15:53:13;;;;;;;22.85;10.75;;;;;;;-7.06;71.75;97678.53;4889574;29;20075;-75
2022/01/03 15:55:39;;;;;;;15.88;7.00;;;;;;;-7.09;70.98;97670.88;4882289;29;20123;-72
2022/01/03 15:58:05;;;;;;;21.65;10.15;;;;;;;-7.15;71.63;97675.41;4881938;29;20059;-74
2022/01/03 16:00:30;;;;;;;23.67;10.75;;;;;;;-7.30;71.37;97676.75;4881679;29;20043;-71
2022/01/03 16:02:55;;;;;;;25.75;12.02;;;;;;;-7.21;72.22;97680.78;4864429;29;20043;-72
2022/01/03 16:05:20;;;;;;;31.73;12.20;;;;;;;-7.34;71.93;97681.19;4864557;29;20107;-72
2022/01/03 16:07:45;;;;;;;27.90;13.30;;;;;;;-7.38;72.25;97681.31;4848472;29;20083;-73
2022/01/03 16:10:10;;;;;;;24.38;11.88;;;;;;;-7.42;72.58;97672.81;4881269;29;20573;-72
2022/01/03 16:12:35;;;;;;;24.65;12.15;;;;;;;-7.37;72.98;97678.69;4881244;29;20524;-72
2022/01/03 16:15:00;;;;;;;18.27;8.20;;;;;;;-7.19;72.52;97677.25;4881089;29;20048;-73
2022/01/03 16:17:26;;;;;;;23.40;10.45;;;;;;;-7.25;72.66;97680.03;4881756;29;20082;-72
2022/01/03 16:19:51;;;;;;;23.52;9.98;;;;;;;-7.20;72.74;97687.66;4864632;29;20044;-72
2022/01/03 16:22:18;;;;;;;30.45;13.55;;;;;;;-6.94;71.49;97684.22;4881143;29;20040;-72
2022/01/03 16:24:43;;;;;;;21.27;9.18;;;;;;;-7.06;71.84;97686.31;4849385;29;20103;-75
2022/01/03 16:27:07;;;;;;;28.52;13.77;;;;;;;-7.13;72.52;97678.81;4880940;29;20135;-72
2022/01/03 16:29:32;;;;;;;26.77;13.10;;;;;;;-7.23;72.47;97688.63;4881648;29;20060;-72
2022/01/03 16:31:57;;;;;;;21.10;10.88;;;;;;;-7.22;72.48;97685.09;4864301;29;20044;-72
2022/01/03 16:34:22;;;;;;;21.20;10.77;;;;;;;-7.26;72.43;97688.69;4881050;29;20067;-72
2022/01/03 16:36:47;;;;;;;12.90;5.07;;;;;;;-7.21;72.99;97698.91;4881034;29;20135;-72
2022/01/03 16:39:12;;;;;;;16.58;8.70;;;;;;;-7.03;71.89;97696.56;4881150;29;20044;-71
2022/01/03 16:41:37;;;;;;;26.10;11.40;;;;;;;-7.10;71.79;97700.25;4880935;29;20099;-72
2022/01/03 16:44:06;;;;;;;22.17;10.45;;;;;;;-7.27;72.53;97702.53;4881314;29;20418;-71
2022/01/03 16:46:33;;;;;;;17.27;8.07;;;;;;;-7.26;72.21;97703.38;4881138;29;20112;-72
2022/01/03 16:48:59;;;;;;;17.42;9.75;;;;;;;-7.22;71.76;97710.16;4863827;29;20131;-72
2022/01/03 16:51:23;;;;;;;9.02;4.65;;;;;;;-7.14;71.21;97700.41;4863834;29;20052;-71
2022/01/03 16:53:49;;;;;;;11.23;5.32;;;;;;;-7.19;70.94;97705.72;4863670;29;20047;-71
2022/01/03 16:56:15;;;;;;;14.50;7.38;;;;;;;-7.22;71.08;97690.28;4863662;29;20051;-72
2022/01/03 16:58:40;;;;;;;15.85;7.28;;;;;;;-7.29;71.93;97708.66;4847807;29;20047;-72
2022/01/03 17:01:05;;;;;;;10.88;6.50;;;;;;;-7.36;71.48;97702.84;4884631;29;20075;-71
2022/01/03 17:03:30;;;;;;;17.70;8.05;;;;;;;-7.55;71.73;97704.28;4887523;29;20074;-72
2022/01/03 17:05:55;;;;;;;19.50;8.15;;;;;;;-7.61;71.64;97704.47;4873173;29;20123;-71
2022/01/03 17:08:21;;;;;;;24.98;10.15;;;;;;;-7.64;73.20;97694.22;4889848;29;20411;-72
2022/01/03 17:10:48;;;;;;;16.20;7.80;;;;;;;-7.60;72.81;97704.44;4887773;29;20051;-71
2022/01/03 17:13:13;;;;;;;19.10;8.95;;;;;;;-7.35;72.22;97707.13;4889022;29;20039;-72
2022/01/03 17:15:37;;;;;;;17.80;10.18;;;;;;;-7.47;73.06;97704.91;4888459;29;20062;-72
2022/01/03 17:18:02;;;;;;;23.27;9.60;;;;;;;-7.53;72.89;97708.50;4896164;29;20498;-72
2022/01/03 17:20:27;;;;;;;13.45;6.90;;;;;;;-7.50;73.53;97705.00;4882290;29;20140;-71
2022/01/03 17:22:52;;;;;;;14.23;7.32;;;;;;;-7.37;72.74;97706.31;4899284;29;20047;-72
2022/01/03 17:25:17;;;;;;;19.45;11.07;;;;;;;-7.34;72.11;97707.06;4899128;29;20057;-72
2022/01/03 17:27:43;;;;;;;25.73;11.77;;;;;;;-7.41;72.79;97712.47;4899484;29;20044;-72
2022/01/03 17:30:08;;;;;;;14.13;6.15;;;;;;;-7.35;72.53;97707.13;4879105;29;20116;-71
2022/01/03 17:32:33;;;;;;;19.20;8.82;;;;;;;-7.38;73.05;97707.22;4879517;29;20127;-71
2022/01/03 17:34:58;;;;;;;11.68;7.07;;;;;;;-7.36;72.08;97702.84;4880722;29;20154;-72
2022/01/03 17:37:23;;;;;;;22.58;11.27;;;;;;;-7.40;72.77;97712.41;4866221;29;20036;-72
2022/01/03 17:39:48;;;;;;;18.48;8.18;;;;;;;-7.46;72.27;97706.59;4884442;29;20083;-72
2022/01/03 17:42:13;;;;;;;13.10;7.10;;;;;;;-7.34;72.54;97706.22;4884314;29;20487;-71
2022/01/03 17:44:39;;;;;;;19.50;9.90;;;;;;;-7.32;71.90;97707.84;4883167;29;20526;-71
2022/01/03 17:47:04;;;;;;;19.15;9.43;;;;;;;-7.41;72.15;97715.06;4867184;29;20451;-72
2022/01/03 17:49:29;;;;;;;18.80;8.00;;;;;;;-7.31;72.09;97711.28;4883967;29;20048;-72
2022/01/03 17:51:54;;;;;;;22.05;9.95;;;;;;;-7.43;72.45;97704.75;4882634;29;20040;-72
2022/01/03 17:54:19;;;;;;;8.02;5.82;;;;;;;-7.39;72.80;97696.00;4884039;29;20142;-73
2022/01/03 17:56:44;;;;;;;27.80;12.10;;;;;;;-7.58;72.53;97697.47;4882639;29;20044;-73
2022/01/03 17:59:09;;;;;;;20.90;10.80;;;;;;;-7.62;73.21;97695.00;4882868;29;20451;-72
2022/01/03 18:01:34;;;;;;;13.20;6.35;;;;;;;-7.59;73.47;97697.53;4884260;29;20851;-73
2022/01/03 18:03:59;;;;;;;20.25;9.45;;;;;;;-7.55;73.16;97696.50;4882739;29;20051;-71
2022/01/03 18:06:23;;;;;;;21.48;9.98;;;;;;;-7.50;73.15;97698.06;4883832;29;20044;-72
2022/01/03 18:08:49;;;;;;;18.88;7.90;;;;;;;-7.44;73.28;97700.47;4883648;29;20054;-71
2022/01/03 18:11:15;;;;;;;15.13;6.60;;;;;;;-7.54;72.86;97699.06;4866672;29;20426;-71
2022/01/03 18:13:39;;;;;;;19.48;9.27;;;;;;;-7.54;72.40;97695.63;4884423;29;20079;-71
2022/01/03 18:16:05;;;;;;;12.13;7.07;;;;;;;-7.62;73.45;97690.69;4883026;29;20075;-72
2022/01/03 18:18:30;;;;;;;19.85;9.05;;;;;;;-7.68;72.69;97696.06;4884283;29;20103;-72
2022/01/03 18:20:55;;;;;;;23.60;10.45;;;;;;;-7.51;72.95;97700.72;4885188;29;20043;-71
2022/01/03 18:23:19;;;;;;;22.73;11.50;;;;;;;-7.61;73.18;97701.88;4885020;29;20075;-71
2022/01/03 18:25:44;;;;;;;16.90;9.23;;;;;;;-7.62;73.84;97698.44;4896542;29;20147;-71
2022/01/03 18:28:10;;;;;;;13.30;6.30;;;;;;;-7.47;73.49;97704.91;4902736;29;20052;-72
2022/01/03 18:30:36;;;;;;;23.65;11.90;;;;;;;-7.56;73.82;97707.78;4899660;29;20058;-73
2022/01/03 18:33:02;;;;;;;24.50;12.50;;;;;;;-7.65;74.09;97711.47;4872550;29;20066;-71
2022/01/03 18:35:27;;;;;;;23.70;12.70;;;;;;;-7.64;74.32;97707.16;4902741;29;20079;-71